sensor_id;sensor_type;location;lat;lon;timestamp;temperature;humidity
4840;DHT22;2434;48.486;7.964;2023-02-02T00:01:35;5.70;75.80
4840;DHT22;2434;48.486;7.964;2023-02-02T00:04:03;5.70;75.50
4840;DHT22;2434;48.486;7.964;2023-02-02T00:06:33;5.70;76.60
4840;DHT22;2434;48.486;7.964;2023-02-02T00:09:02;5.80;76.40
4840;DHT22;2434;48.486;7.964;2023-02-02T00:11:30;5.80;76.00
4840;DHT22;2434;48.486;7.964;2023-02-02T00:13:58;5.90;75.40
4840;DHT22;2434;48.486;7.964;2023-02-02T00:16:36;5.90;74.80
4840;DHT22;2434;48.486;7.964;2023-02-02T00:19:07;6.00;74.20
4840;DHT22;2434;48.486;7.964;2023-02-02T00:21:37;6.00;73.90
4840;DHT22;2434;48.486;7.964;2023-02-02T00:24:06;6.00;74.40
4840;DHT22;2434;48.486;7.964;2023-02-02T00:26:36;6.00;73.60
4840;DHT22;2434;48.486;7.964;2023-02-02T00:29:05;6.00;73.70
4840;DHT22;2434;48.486;7.964;2023-02-02T00:31:34;6.00;73.30
4840;DHT22;2434;48.486;7.964;2023-02-02T00:34:02;5.90;73.70
4840;DHT22;2434;48.486;7.964;2023-02-02T00:36:30;5.90;73.70
4840;DHT22;2434;48.486;7.964;2023-02-02T00:39:00;5.90;74.70
4840;DHT22;2434;48.486;7.964;2023-02-02T00:41:28;5.90;73.60
4840;DHT22;2434;48.486;7.964;2023-02-02T00:43:56;5.90;73.60
4840;DHT22;2434;48.486;7.964;2023-02-02T00:46:42;5.80;74.50
4840;DHT22;2434;48.486;7.964;2023-02-02T00:49:11;5.90;74.30
4840;DHT22;2434;48.486;7.964;2023-02-02T00:51:39;5.90;74.90
4840;DHT22;2434;48.486;7.964;2023-02-02T00:54:08;5.80;74.50
4840;DHT22;2434;48.486;7.964;2023-02-02T00:56:37;5.90;74.20
4840;DHT22;2434;48.486;7.964;2023-02-02T00:59:05;5.90;74.00
4840;DHT22;2434;48.486;7.964;2023-02-02T01:01:33;5.80;74.70
4840;DHT22;2434;48.486;7.964;2023-02-02T01:04:01;5.80;75.10
4840;DHT22;2434;48.486;7.964;2023-02-02T01:06:30;5.80;74.70
4840;DHT22;2434;48.486;7.964;2023-02-02T01:08:58;5.80;73.70
4840;DHT22;2434;48.486;7.964;2023-02-02T01:11:27;5.80;74.60
4840;DHT22;2434;48.486;7.964;2023-02-02T01:13:56;5.90;74.30
4840;DHT22;2434;48.486;7.964;2023-02-02T01:16:24;5.90;74.30
4840;DHT22;2434;48.486;7.964;2023-02-02T01:18:53;5.80;75.40
4840;DHT22;2434;48.486;7.964;2023-02-02T01:21:21;5.80;75.30
4840;DHT22;2434;48.486;7.964;2023-02-02T01:23:50;5.80;74.90
4840;DHT22;2434;48.486;7.964;2023-02-02T01:26:18;5.90;74.70
4840;DHT22;2434;48.486;7.964;2023-02-02T01:28:47;5.90;74.30
4840;DHT22;2434;48.486;7.964;2023-02-02T01:31:17;5.80;74.80
4840;DHT22;2434;48.486;7.964;2023-02-02T01:33:47;5.90;74.40
4840;DHT22;2434;48.486;7.964;2023-02-02T01:36:17;5.90;74.00
4840;DHT22;2434;48.486;7.964;2023-02-02T01:38:46;5.90;74.30
4840;DHT22;2434;48.486;7.964;2023-02-02T01:41:16;5.80;74.10
4840;DHT22;2434;48.486;7.964;2023-02-02T01:43:52;5.90;74.50
4840;DHT22;2434;48.486;7.964;2023-02-02T01:46:23;5.80;74.10
4840;DHT22;2434;48.486;7.964;2023-02-02T01:48:55;5.80;74.10
4840;DHT22;2434;48.486;7.964;2023-02-02T01:51:31;5.80;73.50
4840;DHT22;2434;48.486;7.964;2023-02-02T01:54:00;5.80;74.30
4840;DHT22;2434;48.486;7.964;2023-02-02T01:56:32;5.80;74.90
4840;DHT22;2434;48.486;7.964;2023-02-02T01:59:03;5.70;74.60
4840;DHT22;2434;48.486;7.964;2023-02-02T02:01:32;5.80;74.60
4840;DHT22;2434;48.486;7.964;2023-02-02T02:04:00;5.70;75.00
4840;DHT22;2434;48.486;7.964;2023-02-02T02:06:30;5.80;74.70
4840;DHT22;2434;48.486;7.964;2023-02-02T02:09:02;5.80;73.60
4840;DHT22;2434;48.486;7.964;2023-02-02T02:11:31;5.80;73.80
4840;DHT22;2434;48.486;7.964;2023-02-02T02:14:05;5.90;73.80
4840;DHT22;2434;48.486;7.964;2023-02-02T02:17:03;5.90;73.70
4840;DHT22;2434;48.486;7.964;2023-02-02T02:23:29;5.80;74.50
4840;DHT22;2434;48.486;7.964;2023-02-02T02:26:39;5.80;74.40
4840;DHT22;2434;48.486;7.964;2023-02-02T02:29:35;5.90;73.90
4840;DHT22;2434;48.486;7.964;2023-02-02T02:32:23;5.80;74.00
4840;DHT22;2434;48.486;7.964;2023-02-02T02:35:02;5.90;74.30
4840;DHT22;2434;48.486;7.964;2023-02-02T02:37:39;5.90;74.00
4840;DHT22;2434;48.486;7.964;2023-02-02T02:40:19;5.70;74.50
4840;DHT22;2434;48.486;7.964;2023-02-02T02:42:51;5.70;74.60
4840;DHT22;2434;48.486;7.964;2023-02-02T02:45:24;5.70;75.10
4840;DHT22;2434;48.486;7.964;2023-02-02T02:47:56;5.50;75.70
4840;DHT22;2434;48.486;7.964;2023-02-02T02:50:25;5.50;76.50
4840;DHT22;2434;48.486;7.964;2023-02-02T02:52:59;5.60;75.90
4840;DHT22;2434;48.486;7.964;2023-02-02T02:55:36;5.60;75.60
4840;DHT22;2434;48.486;7.964;2023-02-02T02:58:11;5.70;75.70
4840;DHT22;2434;48.486;7.964;2023-02-02T03:00:53;5.70;75.80
4840;DHT22;2434;48.486;7.964;2023-02-02T03:03:32;5.60;75.50
4840;DHT22;2434;48.486;7.964;2023-02-02T03:06:09;5.50;76.20
4840;DHT22;2434;48.486;7.964;2023-02-02T03:08:42;5.60;76.50
4840;DHT22;2434;48.486;7.964;2023-02-02T03:11:14;5.60;75.70
4840;DHT22;2434;48.486;7.964;2023-02-02T03:13:42;5.60;75.90
4840;DHT22;2434;48.486;7.964;2023-02-02T03:16:11;5.60;76.00
4840;DHT22;2434;48.486;7.964;2023-02-02T03:18:40;5.50;76.30
4840;DHT22;2434;48.486;7.964;2023-02-02T03:21:10;5.60;76.30
4840;DHT22;2434;48.486;7.964;2023-02-02T03:23:38;5.70;75.80
4840;DHT22;2434;48.486;7.964;2023-02-02T03:26:06;5.60;76.00
4840;DHT22;2434;48.486;7.964;2023-02-02T03:28:35;5.50;77.10
4840;DHT22;2434;48.486;7.964;2023-02-02T03:31:04;5.50;77.00
4840;DHT22;2434;48.486;7.964;2023-02-02T03:33:34;5.50;77.30
4840;DHT22;2434;48.486;7.964;2023-02-02T03:36:05;5.50;76.90
4840;DHT22;2434;48.486;7.964;2023-02-02T03:38:33;5.50;77.00
4840;DHT22;2434;48.486;7.964;2023-02-02T03:41:01;5.60;76.30
4840;DHT22;2434;48.486;7.964;2023-02-02T03:43:30;5.60;75.60
4840;DHT22;2434;48.486;7.964;2023-02-02T03:45:59;5.70;75.30
4840;DHT22;2434;48.486;7.964;2023-02-02T03:48:29;5.60;75.20
4840;DHT22;2434;48.486;7.964;2023-02-02T03:50:57;5.60;75.90
4840;DHT22;2434;48.486;7.964;2023-02-02T03:53:26;5.50;76.50
4840;DHT22;2434;48.486;7.964;2023-02-02T03:55:55;5.60;76.10
4840;DHT22;2434;48.486;7.964;2023-02-02T03:58:23;5.50;77.00
4840;DHT22;2434;48.486;7.964;2023-02-02T04:00:51;5.50;76.80
4840;DHT22;2434;48.486;7.964;2023-02-02T04:03:21;5.50;77.20
4840;DHT22;2434;48.486;7.964;2023-02-02T04:05:49;5.50;77.10
4840;DHT22;2434;48.486;7.964;2023-02-02T04:08:17;5.50;76.90
4840;DHT22;2434;48.486;7.964;2023-02-02T04:10:47;5.40;77.30
4840;DHT22;2434;48.486;7.964;2023-02-02T04:13:15;5.60;76.80
4840;DHT22;2434;48.486;7.964;2023-02-02T04:15:43;5.60;75.70
4840;DHT22;2434;48.486;7.964;2023-02-02T04:18:11;5.50;76.60
4840;DHT22;2434;48.486;7.964;2023-02-02T04:20:39;5.60;76.30
4840;DHT22;2434;48.486;7.964;2023-02-02T04:23:07;5.60;76.30
4840;DHT22;2434;48.486;7.964;2023-02-02T04:25:35;5.50;76.90
4840;DHT22;2434;48.486;7.964;2023-02-02T04:28:05;5.50;76.40
4840;DHT22;2434;48.486;7.964;2023-02-02T04:30:33;5.50;76.80
4840;DHT22;2434;48.486;7.964;2023-02-02T04:33:01;5.40;77.00
4840;DHT22;2434;48.486;7.964;2023-02-02T04:35:29;5.50;76.60
4840;DHT22;2434;48.486;7.964;2023-02-02T04:37:58;5.50;77.30
4840;DHT22;2434;48.486;7.964;2023-02-02T04:40:26;5.50;76.70
4840;DHT22;2434;48.486;7.964;2023-02-02T04:42:55;5.50;76.90
4840;DHT22;2434;48.486;7.964;2023-02-02T04:45:25;5.50;76.90
4840;DHT22;2434;48.486;7.964;2023-02-02T04:47:53;5.60;76.80
4840;DHT22;2434;48.486;7.964;2023-02-02T04:50:22;5.60;76.50
4840;DHT22;2434;48.486;7.964;2023-02-02T04:52:50;5.60;76.10
4840;DHT22;2434;48.486;7.964;2023-02-02T04:55:18;5.60;76.70
4840;DHT22;2434;48.486;7.964;2023-02-02T04:57:46;5.60;76.20
4840;DHT22;2434;48.486;7.964;2023-02-02T05:00:15;5.60;75.90
4840;DHT22;2434;48.486;7.964;2023-02-02T05:02:45;5.60;76.20
4840;DHT22;2434;48.486;7.964;2023-02-02T05:05:13;5.60;75.80
4840;DHT22;2434;48.486;7.964;2023-02-02T05:07:41;5.50;76.90
4840;DHT22;2434;48.486;7.964;2023-02-02T05:10:10;5.50;77.40
4840;DHT22;2434;48.486;7.964;2023-02-02T05:12:38;5.50;77.50
4840;DHT22;2434;48.486;7.964;2023-02-02T05:15:07;5.60;76.80
4840;DHT22;2434;48.486;7.964;2023-02-02T05:17:36;5.50;77.10
4840;DHT22;2434;48.486;7.964;2023-02-02T05:20:06;5.50;77.70
4840;DHT22;2434;48.486;7.964;2023-02-02T05:22:34;5.40;78.60
4840;DHT22;2434;48.486;7.964;2023-02-02T05:25:03;5.50;77.50
4840;DHT22;2434;48.486;7.964;2023-02-02T05:27:32;5.50;77.60
4840;DHT22;2434;48.486;7.964;2023-02-02T05:30:01;5.60;77.40
4840;DHT22;2434;48.486;7.964;2023-02-02T05:32:30;5.50;77.80
4840;DHT22;2434;48.486;7.964;2023-02-02T05:34:58;5.60;77.60
4840;DHT22;2434;48.486;7.964;2023-02-02T05:37:27;5.60;78.00
4840;DHT22;2434;48.486;7.964;2023-02-02T05:39:55;5.60;76.60
4840;DHT22;2434;48.486;7.964;2023-02-02T05:42:24;5.50;77.10
4840;DHT22;2434;48.486;7.964;2023-02-02T05:44:52;5.50;77.70
4840;DHT22;2434;48.486;7.964;2023-02-02T05:47:20;5.40;78.40
4840;DHT22;2434;48.486;7.964;2023-02-02T05:49:48;5.40;78.30
4840;DHT22;2434;48.486;7.964;2023-02-02T05:52:19;5.50;78.20
4840;DHT22;2434;48.486;7.964;2023-02-02T05:54:50;5.50;78.10
4840;DHT22;2434;48.486;7.964;2023-02-02T05:57:18;5.50;78.20
4840;DHT22;2434;48.486;7.964;2023-02-02T05:59:46;5.40;78.70
4840;DHT22;2434;48.486;7.964;2023-02-02T06:02:14;5.40;79.10
4840;DHT22;2434;48.486;7.964;2023-02-02T06:04:42;5.40;79.10
4840;DHT22;2434;48.486;7.964;2023-02-02T06:07:11;5.50;78.20
4840;DHT22;2434;48.486;7.964;2023-02-02T06:09:39;5.40;79.60
4840;DHT22;2434;48.486;7.964;2023-02-02T06:12:08;5.30;79.80
4840;DHT22;2434;48.486;7.964;2023-02-02T06:14:36;5.40;79.20
4840;DHT22;2434;48.486;7.964;2023-02-02T06:17:04;5.40;79.50
4840;DHT22;2434;48.486;7.964;2023-02-02T06:19:33;5.60;78.40
4840;DHT22;2434;48.486;7.964;2023-02-02T06:22:02;5.60;78.30
4840;DHT22;2434;48.486;7.964;2023-02-02T06:24:30;5.40;79.30
4840;DHT22;2434;48.486;7.964;2023-02-02T06:26:58;5.40;80.00
4840;DHT22;2434;48.486;7.964;2023-02-02T06:29:28;5.50;79.40
4840;DHT22;2434;48.486;7.964;2023-02-02T06:31:56;5.50;79.50
4840;DHT22;2434;48.486;7.964;2023-02-02T06:34:24;5.50;79.50
4840;DHT22;2434;48.486;7.964;2023-02-02T06:36:52;5.50;80.30
4840;DHT22;2434;48.486;7.964;2023-02-02T06:39:20;5.50;79.70
4840;DHT22;2434;48.486;7.964;2023-02-02T06:41:48;5.40;80.70
4840;DHT22;2434;48.486;7.964;2023-02-02T06:44:17;5.40;80.40
4840;DHT22;2434;48.486;7.964;2023-02-02T06:46:48;5.50;80.00
4840;DHT22;2434;48.486;7.964;2023-02-02T06:49:16;5.50;80.30
4840;DHT22;2434;48.486;7.964;2023-02-02T06:51:46;5.50;79.70
4840;DHT22;2434;48.486;7.964;2023-02-02T06:54:14;5.50;79.30
4840;DHT22;2434;48.486;7.964;2023-02-02T06:56:42;5.50;79.00
4840;DHT22;2434;48.486;7.964;2023-02-02T06:59:10;5.50;79.10
4840;DHT22;2434;48.486;7.964;2023-02-02T07:01:38;5.60;79.20
4840;DHT22;2434;48.486;7.964;2023-02-02T07:04:08;5.60;78.60
4840;DHT22;2434;48.486;7.964;2023-02-02T07:06:36;5.60;79.00
4840;DHT22;2434;48.486;7.964;2023-02-02T07:09:06;5.60;79.20
4840;DHT22;2434;48.486;7.964;2023-02-02T07:11:34;5.60;78.50
4840;DHT22;2434;48.486;7.964;2023-02-02T07:14:10;5.60;78.10
4840;DHT22;2434;48.486;7.964;2023-02-02T07:16:38;5.60;78.70
4840;DHT22;2434;48.486;7.964;2023-02-02T07:19:08;5.60;78.60
4840;DHT22;2434;48.486;7.964;2023-02-02T07:21:36;5.60;78.50
4840;DHT22;2434;48.486;7.964;2023-02-02T07:24:05;5.60;78.20
4840;DHT22;2434;48.486;7.964;2023-02-02T07:26:34;5.50;78.70
4840;DHT22;2434;48.486;7.964;2023-02-02T07:29:03;5.60;78.70
4840;DHT22;2434;48.486;7.964;2023-02-02T07:31:32;5.50;79.10
4840;DHT22;2434;48.486;7.964;2023-02-02T07:34:03;5.60;78.50
4840;DHT22;2434;48.486;7.964;2023-02-02T07:36:33;5.70;78.10
4840;DHT22;2434;48.486;7.964;2023-02-02T07:39:02;5.80;77.30
4840;DHT22;2434;48.486;7.964;2023-02-02T07:41:33;5.80;76.80
4840;DHT22;2434;48.486;7.964;2023-02-02T07:44:02;5.80;76.60
4840;DHT22;2434;48.486;7.964;2023-02-02T07:46:30;5.80;76.20
4840;DHT22;2434;48.486;7.964;2023-02-02T07:48:59;5.90;76.00
4840;DHT22;2434;48.486;7.964;2023-02-02T07:51:27;5.90;76.40
4840;DHT22;2434;48.486;7.964;2023-02-02T07:53:57;5.90;76.00
4840;DHT22;2434;48.486;7.964;2023-02-02T07:56:26;5.90;75.80
4840;DHT22;2434;48.486;7.964;2023-02-02T07:58:55;5.90;75.80
4840;DHT22;2434;48.486;7.964;2023-02-02T08:01:24;5.90;75.40
4840;DHT22;2434;48.486;7.964;2023-02-02T08:03:54;5.90;75.60
4840;DHT22;2434;48.486;7.964;2023-02-02T08:06:24;5.90;75.80
4840;DHT22;2434;48.486;7.964;2023-02-02T08:08:54;5.90;75.90
4840;DHT22;2434;48.486;7.964;2023-02-02T08:11:25;6.00;76.20
4840;DHT22;2434;48.486;7.964;2023-02-02T08:13:55;6.00;74.80
4840;DHT22;2434;48.486;7.964;2023-02-02T08:16:25;6.00;74.40
4840;DHT22;2434;48.486;7.964;2023-02-02T08:18:53;6.00;74.50
4840;DHT22;2434;48.486;7.964;2023-02-02T08:21:22;6.00;75.00
4840;DHT22;2434;48.486;7.964;2023-02-02T08:23:51;6.00;75.50
4840;DHT22;2434;48.486;7.964;2023-02-02T08:26:21;6.00;75.30
4840;DHT22;2434;48.486;7.964;2023-02-02T08:28:54;6.00;75.30
4840;DHT22;2434;48.486;7.964;2023-02-02T08:31:24;6.00;75.10
4840;DHT22;2434;48.486;7.964;2023-02-02T08:33:53;6.10;75.00
4840;DHT22;2434;48.486;7.964;2023-02-02T08:36:23;6.10;74.70
4840;DHT22;2434;48.486;7.964;2023-02-02T08:38:51;6.00;75.50
4840;DHT22;2434;48.486;7.964;2023-02-02T08:41:21;6.10;74.60
4840;DHT22;2434;48.486;7.964;2023-02-02T08:43:51;6.10;75.40
4840;DHT22;2434;48.486;7.964;2023-02-02T08:46:20;6.10;74.20
4840;DHT22;2434;48.486;7.964;2023-02-02T08:48:48;6.10;74.80
4840;DHT22;2434;48.486;7.964;2023-02-02T08:51:18;6.10;73.80
4840;DHT22;2434;48.486;7.964;2023-02-02T08:53:46;6.10;74.80
4840;DHT22;2434;48.486;7.964;2023-02-02T08:56:17;6.10;73.70
4840;DHT22;2434;48.486;7.964;2023-02-02T08:58:47;6.10;74.20
4840;DHT22;2434;48.486;7.964;2023-02-02T09:01:19;6.20;74.70
4840;DHT22;2434;48.486;7.964;2023-02-02T09:03:52;6.20;74.40
4840;DHT22;2434;48.486;7.964;2023-02-02T09:06:21;6.20;74.10
4840;DHT22;2434;48.486;7.964;2023-02-02T09:08:51;6.20;73.50
4840;DHT22;2434;48.486;7.964;2023-02-02T09:11:19;6.30;74.30
4840;DHT22;2434;48.486;7.964;2023-02-02T09:13:51;6.20;73.70
4840;DHT22;2434;48.486;7.964;2023-02-02T09:16:22;6.20;74.00
4840;DHT22;2434;48.486;7.964;2023-02-02T09:18:51;6.20;74.70
4840;DHT22;2434;48.486;7.964;2023-02-02T09:21:20;6.20;74.30
4840;DHT22;2434;48.486;7.964;2023-02-02T09:23:49;6.30;74.20
4840;DHT22;2434;48.486;7.964;2023-02-02T09:26:21;6.30;74.50
4840;DHT22;2434;48.486;7.964;2023-02-02T09:28:52;6.30;74.50
4840;DHT22;2434;48.486;7.964;2023-02-02T09:31:22;6.30;73.70
4840;DHT22;2434;48.486;7.964;2023-02-02T09:33:51;6.40;74.20
4840;DHT22;2434;48.486;7.964;2023-02-02T09:36:21;6.30;73.80
4840;DHT22;2434;48.486;7.964;2023-02-02T09:38:50;6.30;74.50
4840;DHT22;2434;48.486;7.964;2023-02-02T09:41:52;6.40;74.00
4840;DHT22;2434;48.486;7.964;2023-02-02T09:44:36;6.30;74.10
4840;DHT22;2434;48.486;7.964;2023-02-02T09:47:15;6.40;73.80
4840;DHT22;2434;48.486;7.964;2023-02-02T09:49:53;6.30;74.10
4840;DHT22;2434;48.486;7.964;2023-02-02T09:52:26;6.40;74.10
4840;DHT22;2434;48.486;7.964;2023-02-02T09:54:59;6.40;74.30
4840;DHT22;2434;48.486;7.964;2023-02-02T09:57:35;6.30;74.70
4840;DHT22;2434;48.486;7.964;2023-02-02T10:00:06;6.40;74.10
4840;DHT22;2434;48.486;7.964;2023-02-02T10:02:44;6.50;74.00
4840;DHT22;2434;48.486;7.964;2023-02-02T10:05:18;6.50;73.90
4840;DHT22;2434;48.486;7.964;2023-02-02T10:07:52;6.50;73.40
4840;DHT22;2434;48.486;7.964;2023-02-02T10:10:26;6.60;73.20
4840;DHT22;2434;48.486;7.964;2023-02-02T10:12:59;6.50;73.80
4840;DHT22;2434;48.486;7.964;2023-02-02T10:15:36;6.50;73.90
4840;DHT22;2434;48.486;7.964;2023-02-02T10:18:12;6.60;73.80
4840;DHT22;2434;48.486;7.964;2023-02-02T10:20:44;6.50;74.00
4840;DHT22;2434;48.486;7.964;2023-02-02T10:23:22;6.50;73.60
4840;DHT22;2434;48.486;7.964;2023-02-02T10:25:55;6.60;74.00
4840;DHT22;2434;48.486;7.964;2023-02-02T10:28:38;6.60;73.50
4840;DHT22;2434;48.486;7.964;2023-02-02T10:31:16;6.60;73.40
4840;DHT22;2434;48.486;7.964;2023-02-02T10:33:56;6.60;73.20
4840;DHT22;2434;48.486;7.964;2023-02-02T10:36:36;6.60;73.20
4840;DHT22;2434;48.486;7.964;2023-02-02T10:39:14;6.60;73.50
4840;DHT22;2434;48.486;7.964;2023-02-02T10:41:51;6.60;72.70
4840;DHT22;2434;48.486;7.964;2023-02-02T10:44:29;6.60;73.40
4840;DHT22;2434;48.486;7.964;2023-02-02T10:47:03;6.60;73.40
4840;DHT22;2434;48.486;7.964;2023-02-02T10:49:36;6.70;72.80
4840;DHT22;2434;48.486;7.964;2023-02-02T10:52:13;6.70;73.00
4840;DHT22;2434;48.486;7.964;2023-02-02T10:54:54;6.70;72.50
4840;DHT22;2434;48.486;7.964;2023-02-02T10:57:37;6.80;72.30
4840;DHT22;2434;48.486;7.964;2023-02-02T11:00:19;6.80;72.10
4840;DHT22;2434;48.486;7.964;2023-02-02T11:02:50;6.90;71.90
4840;DHT22;2434;48.486;7.964;2023-02-02T11:05:22;7.00;72.20
4840;DHT22;2434;48.486;7.964;2023-02-02T11:08:17;7.00;71.70
4840;DHT22;2434;48.486;7.964;2023-02-02T11:10:47;7.00;70.80
4840;DHT22;2434;48.486;7.964;2023-02-02T11:13:24;6.90;72.20
4840;DHT22;2434;48.486;7.964;2023-02-02T11:16:22;6.90;71.90
4840;DHT22;2434;48.486;7.964;2023-02-02T11:19:21;6.90;71.90
4840;DHT22;2434;48.486;7.964;2023-02-02T11:21:53;7.00;71.00
4840;DHT22;2434;48.486;7.964;2023-02-02T11:24:25;7.00;71.00
4840;DHT22;2434;48.486;7.964;2023-02-02T11:26:55;7.00;71.20
4840;DHT22;2434;48.486;7.964;2023-02-02T11:29:27;7.10;71.10
4840;DHT22;2434;48.486;7.964;2023-02-02T11:31:56;7.10;71.40
4840;DHT22;2434;48.486;7.964;2023-02-02T11:34:26;7.00;71.40
4840;DHT22;2434;48.486;7.964;2023-02-02T11:37:02;7.10;71.30
4840;DHT22;2434;48.486;7.964;2023-02-02T11:39:31;7.10;71.50
4840;DHT22;2434;48.486;7.964;2023-02-02T11:42:00;7.10;71.50
4840;DHT22;2434;48.486;7.964;2023-02-02T11:44:31;7.10;71.70
4840;DHT22;2434;48.486;7.964;2023-02-02T11:47:02;7.10;71.60
4840;DHT22;2434;48.486;7.964;2023-02-02T11:49:36;7.10;71.40
4840;DHT22;2434;48.486;7.964;2023-02-02T11:52:18;7.10;71.40
4840;DHT22;2434;48.486;7.964;2023-02-02T11:54:49;7.10;72.40
4840;DHT22;2434;48.486;7.964;2023-02-02T11:57:20;7.20;71.90
4840;DHT22;2434;48.486;7.964;2023-02-02T11:59:50;7.20;71.70
4840;DHT22;2434;48.486;7.964;2023-02-02T12:02:27;7.20;71.10
4840;DHT22;2434;48.486;7.964;2023-02-02T12:05:30;7.20;71.40
4840;DHT22;2434;48.486;7.964;2023-02-02T12:08:00;7.10;70.70
4840;DHT22;2434;48.486;7.964;2023-02-02T12:10:36;7.20;71.80
4840;DHT22;2434;48.486;7.964;2023-02-02T12:13:08;7.20;72.10
4840;DHT22;2434;48.486;7.964;2023-02-02T12:15:47;7.20;72.50
4840;DHT22;2434;48.486;7.964;2023-02-02T12:18:30;7.10;71.80
4840;DHT22;2434;48.486;7.964;2023-02-02T12:21:04;7.10;73.00
4840;DHT22;2434;48.486;7.964;2023-02-02T12:23:50;7.10;72.20
4840;DHT22;2434;48.486;7.964;2023-02-02T12:26:27;7.20;72.10
4840;DHT22;2434;48.486;7.964;2023-02-02T12:29:11;7.30;72.10
4840;DHT22;2434;48.486;7.964;2023-02-02T12:31:57;7.30;72.80
4840;DHT22;2434;48.486;7.964;2023-02-02T12:34:33;7.30;71.40
4840;DHT22;2434;48.486;7.964;2023-02-02T12:37:10;7.30;72.20
4840;DHT22;2434;48.486;7.964;2023-02-02T12:39:54;7.20;72.50
4840;DHT22;2434;48.486;7.964;2023-02-02T12:42:37;7.20;73.00
4840;DHT22;2434;48.486;7.964;2023-02-02T12:45:30;7.20;73.50
4840;DHT22;2434;48.486;7.964;2023-02-02T12:48:09;7.20;74.00
4840;DHT22;2434;48.486;7.964;2023-02-02T12:50:53;7.10;73.80
4840;DHT22;2434;48.486;7.964;2023-02-02T12:53:42;7.10;73.90
4840;DHT22;2434;48.486;7.964;2023-02-02T12:56:43;7.10;74.60
4840;DHT22;2434;48.486;7.964;2023-02-02T12:59:25;7.10;74.30
4840;DHT22;2434;48.486;7.964;2023-02-02T13:02:02;7.10;74.60
4840;DHT22;2434;48.486;7.964;2023-02-02T13:04:52;7.00;74.40
4840;DHT22;2434;48.486;7.964;2023-02-02T13:07:33;7.00;74.60
4840;DHT22;2434;48.486;7.964;2023-02-02T13:10:15;7.00;74.80
4840;DHT22;2434;48.486;7.964;2023-02-02T13:12:49;7.00;74.80
4840;DHT22;2434;48.486;7.964;2023-02-02T13:15:20;7.00;74.40
4840;DHT22;2434;48.486;7.964;2023-02-02T13:17:52;7.00;75.40
4840;DHT22;2434;48.486;7.964;2023-02-02T13:20:28;7.00;74.10
4840;DHT22;2434;48.486;7.964;2023-02-02T13:23:02;7.00;74.00
4840;DHT22;2434;48.486;7.964;2023-02-02T13:25:36;7.00;74.00
4840;DHT22;2434;48.486;7.964;2023-02-02T13:28:14;7.00;74.10
4840;DHT22;2434;48.486;7.964;2023-02-02T13:30:46;7.00;73.50
4840;DHT22;2434;48.486;7.964;2023-02-02T13:33:17;7.00;74.10
4840;DHT22;2434;48.486;7.964;2023-02-02T13:35:51;7.00;74.10
4840;DHT22;2434;48.486;7.964;2023-02-02T13:38:21;7.10;73.90
4840;DHT22;2434;48.486;7.964;2023-02-02T13:40:52;7.00;74.50
4840;DHT22;2434;48.486;7.964;2023-02-02T13:43:29;7.00;74.50
4840;DHT22;2434;48.486;7.964;2023-02-02T13:46:08;7.00;74.00
4840;DHT22;2434;48.486;7.964;2023-02-02T13:48:46;7.10;73.70
4840;DHT22;2434;48.486;7.964;2023-02-02T13:51:46;7.00;73.50
4840;DHT22;2434;48.486;7.964;2023-02-02T13:54:59;7.10;73.80
4840;DHT22;2434;48.486;7.964;2023-02-02T13:57:52;7.10;73.30
4840;DHT22;2434;48.486;7.964;2023-02-02T14:00:28;7.10;73.10
4840;DHT22;2434;48.486;7.964;2023-02-02T14:03:01;7.10;72.90
4840;DHT22;2434;48.486;7.964;2023-02-02T14:05:34;7.10;73.00
4840;DHT22;2434;48.486;7.964;2023-02-02T14:08:05;7.10;72.90
4840;DHT22;2434;48.486;7.964;2023-02-02T14:10:35;7.10;73.20
4840;DHT22;2434;48.486;7.964;2023-02-02T14:13:13;7.10;72.90
4840;DHT22;2434;48.486;7.964;2023-02-02T14:15:59;7.40;71.90
4840;DHT22;2434;48.486;7.964;2023-02-02T14:18:52;7.50;70.50
4840;DHT22;2434;48.486;7.964;2023-02-02T14:24:53;7.40;69.80
4840;DHT22;2434;48.486;7.964;2023-02-02T14:27:54;7.50;69.70
4840;DHT22;2434;48.486;7.964;2023-02-02T14:30:31;7.40;70.90
4840;DHT22;2434;48.486;7.964;2023-02-02T14:33:25;7.40;70.70
4840;DHT22;2434;48.486;7.964;2023-02-02T14:36:03;7.40;72.90
4840;DHT22;2434;48.486;7.964;2023-02-02T14:38:54;7.40;71.30
4840;DHT22;2434;48.486;7.964;2023-02-02T14:41:34;7.30;71.70
4840;DHT22;2434;48.486;7.964;2023-02-02T14:44:27;7.40;73.60
4840;DHT22;2434;48.486;7.964;2023-02-02T14:46:56;7.40;71.40
4840;DHT22;2434;48.486;7.964;2023-02-02T14:49:31;7.30;71.20
4840;DHT22;2434;48.486;7.964;2023-02-02T14:52:01;7.30;71.50
4840;DHT22;2434;48.486;7.964;2023-02-02T14:54:37;7.30;71.30
4840;DHT22;2434;48.486;7.964;2023-02-02T14:57:22;7.30;70.70
4840;DHT22;2434;48.486;7.964;2023-02-02T14:59:53;7.40;71.20
4840;DHT22;2434;48.486;7.964;2023-02-02T15:02:23;7.40;71.00
4840;DHT22;2434;48.486;7.964;2023-02-02T15:05:37;7.40;70.60
4840;DHT22;2434;48.486;7.964;2023-02-02T15:08:22;7.40;70.30
4840;DHT22;2434;48.486;7.964;2023-02-02T15:11:05;7.50;69.40
4840;DHT22;2434;48.486;7.964;2023-02-02T15:13:51;7.40;69.60
4840;DHT22;2434;48.486;7.964;2023-02-02T15:16:26;7.40;70.60
4840;DHT22;2434;48.486;7.964;2023-02-02T15:19:03;7.40;71.20
4840;DHT22;2434;48.486;7.964;2023-02-02T15:21:35;7.40;72.10
4840;DHT22;2434;48.486;7.964;2023-02-02T15:24:12;7.40;72.90
4840;DHT22;2434;48.486;7.964;2023-02-02T15:26:42;7.50;71.50
4840;DHT22;2434;48.486;7.964;2023-02-02T15:29:16;7.40;72.00
4840;DHT22;2434;48.486;7.964;2023-02-02T15:31:47;7.30;72.50
4840;DHT22;2434;48.486;7.964;2023-02-02T15:34:19;7.30;72.50
4840;DHT22;2434;48.486;7.964;2023-02-02T15:36:53;7.20;72.50
4840;DHT22;2434;48.486;7.964;2023-02-02T15:39:28;7.20;73.40
4840;DHT22;2434;48.486;7.964;2023-02-02T15:41:59;7.20;72.90
4840;DHT22;2434;48.486;7.964;2023-02-02T15:44:45;7.20;73.80
4840;DHT22;2434;48.486;7.964;2023-02-02T15:47:16;7.20;73.00
4840;DHT22;2434;48.486;7.964;2023-02-02T15:49:45;7.20;72.50
4840;DHT22;2434;48.486;7.964;2023-02-02T15:52:17;7.20;72.40
4840;DHT22;2434;48.486;7.964;2023-02-02T15:54:50;7.20;72.10
4840;DHT22;2434;48.486;7.964;2023-02-02T15:57:31;7.20;72.00
4840;DHT22;2434;48.486;7.964;2023-02-02T16:00:21;7.20;72.00
4840;DHT22;2434;48.486;7.964;2023-02-02T16:02:52;7.20;71.60
4840;DHT22;2434;48.486;7.964;2023-02-02T16:05:23;7.30;71.40
4840;DHT22;2434;48.486;7.964;2023-02-02T16:07:53;7.20;70.40
4840;DHT22;2434;48.486;7.964;2023-02-02T16:10:32;7.20;71.60
4840;DHT22;2434;48.486;7.964;2023-02-02T16:13:00;7.30;71.20
4840;DHT22;2434;48.486;7.964;2023-02-02T16:15:29;7.40;70.40
4840;DHT22;2434;48.486;7.964;2023-02-02T16:17:59;7.40;70.00
4840;DHT22;2434;48.486;7.964;2023-02-02T16:20:30;7.40;70.70
4840;DHT22;2434;48.486;7.964;2023-02-02T16:23:02;7.40;70.20
4840;DHT22;2434;48.486;7.964;2023-02-02T16:25:35;7.50;70.20
4840;DHT22;2434;48.486;7.964;2023-02-02T16:28:04;7.50;69.90
4840;DHT22;2434;48.486;7.964;2023-02-02T16:30:37;7.40;69.90
4840;DHT22;2434;48.486;7.964;2023-02-02T16:33:25;7.30;70.30
4840;DHT22;2434;48.486;7.964;2023-02-02T16:35:54;7.40;69.80
4840;DHT22;2434;48.486;7.964;2023-02-02T16:38:25;7.40;69.60
4840;DHT22;2434;48.486;7.964;2023-02-02T16:41:04;7.50;69.40
4840;DHT22;2434;48.486;7.964;2023-02-02T16:43:33;7.50;68.20
4840;DHT22;2434;48.486;7.964;2023-02-02T16:46:05;7.40;69.20
4840;DHT22;2434;48.486;7.964;2023-02-02T16:48:36;7.40;69.40
4840;DHT22;2434;48.486;7.964;2023-02-02T16:51:21;7.40;69.80
4840;DHT22;2434;48.486;7.964;2023-02-02T16:53:58;7.30;70.60
4840;DHT22;2434;48.486;7.964;2023-02-02T16:56:32;7.40;70.30
4840;DHT22;2434;48.486;7.964;2023-02-02T16:59:03;7.30;70.60
4840;DHT22;2434;48.486;7.964;2023-02-02T17:01:36;7.30;71.00
4840;DHT22;2434;48.486;7.964;2023-02-02T17:04:07;7.50;71.20